Aérodrome :
LOGIN :

S'inscrire | Disclaimer

   EN    FR    IT 

 










Légende :    VFR   VFR Marginal   IFR   IFR Intensif   IFR Très Intensif
Visi : 
Plafond : 
>= 8 km
>= 3000ft
5 à 8 km
1000 à 3000 ft
1500m à 5 km
500 à 1000 ft
800 à 1500m
200 à 500 ft
< 800m
< 200 ft
Symboles :   Orages  Brouillard  Fortes neiges  Fortes précipitations  Vent > 20 kt
SIGMETs :   Divers  Orages  Givrage  Turbulence  Onde Orograph.  Cendres Volcan.







- Altitude de l'aérodrome : 600 ft
- Code IATA : VIE


LOWW - Vienna Schwechat

DERNIER METAR :
  • 181450Z 36003KT 300V040 9999 FEW050CB SCT120 26/13 Q1012 NOSIG

METARs EXPIRÉS :
  • 181420Z 01003KT 310V070 9999 FEW050CB SCT090 25/12 Q1012 NOSIG
  • 181350Z 01006KT 350V050 9999 FEW050CB SCT065 24/15 Q1012 NOSIG
  • 181320Z 36006KT 9999 TSRA FEW050CB BKN060 24/15 Q1012 TEMPO NSW
  • 181250Z 07005KT 360V120 9999 FEW050CB SCT055 26/12 Q1012 TEMPO TSRA
  • 181220Z VRB04KT 9999 FEW050CB 26/12 Q1013 NOSIG

TAF TAF LOWW
Valide du 18 à 15h jusqu'au 19 à 21h UTC


181415Z 1815/1921 07005KT 9999 SCT045 FEW060CB TX27/1913Z TN15/1903Z
TEMPO 1815/1817 33010KT
BECMG 1817/1819 19003KT CAVOK
BECMG 1908/1910 32007KT
TEMPO 1908/1916 9999 SCT040 FEW050CB
BECMG 1917/1919 25005KT
Pas de NOTAMs connus pour ce terrain.



MET'MAP, la Météo Aéronautique d'un coup d'oeil ! - Copyright ORBIFLY Décembre 2007 - Disclaimer

ORBIFLY MET'MAP TEAM :

Programmation & Développement : Alexandra Zaïnal
Conception & Développement : Baudouin d'Aumeries
Co-Programmation & Développement : Marc-Olivier Méhu
Soutien technique & logistique : Manuel Goepfert

Contact : metmap@orbifly.com




SOURCES & CREDITS :

   NOAA